Time;durP1;ratioP1;P1;durP2;ratioP2;P2;SDS_P1;SDS_P2;PMS_P1;PMS_P2;Temp;Humidity;BMP_temperature;BMP_pressure;BME280_temperature;BME280_humidity;BME280_pressure;Samples;Min_cycle;Max_cycle;Signal;HPM_P1;HPM_P2
2022/01/02 00:01:19;;;;;;;6.07;3.15;;;;;;;;;;5027061;28;20060;-66
2022/01/02 00:03:48;;;;;;;5.33;2.90;;;;;;;;;;5020806;28;20581;-66
2022/01/02 00:06:18;;;;;;;7.13;2.90;;;;;;;;;;5036159;28;20065;-66
2022/01/02 00:08:46;;;;;;;6.57;3.28;;;;;;;;;;5017697;28;20428;-66
2022/01/02 00:11:16;;;;;;;7.53;3.50;;;;;;;;;;5023697;28;20057;-66
2022/01/02 00:13:45;;;;;;;5.22;2.53;;;;;;;;;;5020672;28;20438;-66
2022/01/02 00:16:16;;;;;;;5.97;3.05;;;;;;;;;;5020775;28;20057;-66
2022/01/02 00:19:02;;;;;;;7.28;3.10;;;;;;;;;;5024830;28;20522;-66
2022/01/02 00:21:29;;;;;;;5.80;2.92;;;;;;;;;;5031113;28;20045;-66
2022/01/02 00:24:02;;;;;;;4.93;3.00;;;;;;;;;;5021527;28;20543;-66
2022/01/02 00:26:38;;;;;;;7.00;3.45;;;;;;;;;;5015442;28;20050;-66
2022/01/02 00:29:05;;;;;;;8.80;3.22;;;;;;;;;;5024424;28;20059;-66
2022/01/02 00:31:32;;;;;;;7.55;3.08;;;;;;;;;;5023896;28;20049;-66
2022/01/02 00:34:03;;;;;;;7.28;3.00;;;;;;;;;;5027478;28;20084;-66
2022/01/02 00:36:29;;;;;;;6.28;3.10;;;;;;;;;;5028164;28;20049;-66
2022/01/02 00:38:55;;;;;;;5.90;3.05;;;;;;;;;;5015805;28;20045;-66
2022/01/02 00:41:26;;;;;;;7.03;2.83;;;;;;;;;;5019747;28;20419;-66
2022/01/02 00:44:16;;;;;;;5.88;3.05;;;;;;;;;;5020991;28;20057;-66
2022/01/02 00:46:53;;;;;;;7.18;3.47;;;;;;;;;;5026149;28;20433;-66
2022/01/02 00:49:24;;;;;;;7.07;3.28;;;;;;;;;;5019025;28;20504;-66
2022/01/02 00:52:04;;;;;;;5.80;3.30;;;;;;;;;;5032995;28;20418;-66
2022/01/02 00:54:32;;;;;;;8.70;3.58;;;;;;;;;;5014910;28;20061;-66
2022/01/02 00:57:03;;;;;;;5.80;2.80;;;;;;;;;;5024634;28;20057;-66
2022/01/02 00:59:37;;;;;;;8.23;3.17;;;;;;;;;;5020673;28;20049;-66
2022/01/02 01:02:04;;;;;;;5.97;3.05;;;;;;;;;;5024267;28;20059;-66
2022/01/02 01:04:31;;;;;;;6.47;3.17;;;;;;;;;;5027637;28;20049;-66
2022/01/02 01:07:04;;;;;;;6.95;3.22;;;;;;;;;;5012878;28;20069;-66
2022/01/02 01:09:31;;;;;;;7.53;2.70;;;;;;;;;;5028472;28;20141;-66
2022/01/02 01:11:59;;;;;;;6.25;3.10;;;;;;;;;;5015347;28;20061;-66
2022/01/02 01:14:26;;;;;;;7.20;3.10;;;;;;;;;;5024294;28;20509;-66
2022/01/02 01:16:52;;;;;;;7.82;3.10;;;;;;;;;;5021200;28;20132;-66
2022/01/02 01:19:19;;;;;;;7.97;3.03;;;;;;;;;;5018715;28;20052;-66
2022/01/02 01:21:46;;;;;;;9.55;3.28;;;;;;;;;;5020121;28;20422;-65
2022/01/02 01:24:12;;;;;;;7.78;3.25;;;;;;;;;;5011064;28;20057;-65
2022/01/02 01:26:40;;;;;;;8.35;3.53;;;;;;;;;;5025532;28;20136;-65
2022/01/02 01:29:06;;;;;;;7.05;2.90;;;;;;;;;;5013739;28;20045;-65
2022/01/02 01:31:33;;;;;;;11.75;3.50;;;;;;;;;;5023355;28;20045;-65
2022/01/02 01:33:59;;;;;;;7.40;3.45;;;;;;;;;;5010129;28;20062;-66
2022/01/02 01:36:26;;;;;;;9.55;3.08;;;;;;;;;;5019272;28;20057;-66
2022/01/02 01:38:52;;;;;;;9.73;3.05;;;;;;;;;;5018703;28;20159;-66
2022/01/02 01:41:25;;;;;;;8.93;3.33;;;;;;;;;;5018438;28;20076;-66
2022/01/02 01:44:05;;;;;;;10.98;3.35;;;;;;;;;;5018782;28;20651;-66
2022/01/02 01:46:32;;;;;;;7.63;3.13;;;;;;;;;;5014696;28;20552;-66
2022/01/02 01:48:58;;;;;;;7.22;3.30;;;;;;;;;;5015158;28;20064;-66
2022/01/02 01:51:24;;;;;;;6.63;3.15;;;;;;;;;;5017691;28;20052;-66
2022/01/02 01:53:51;;;;;;;7.50;3.70;;;;;;;;;;5021461;28;20425;-66
2022/01/02 01:56:17;;;;;;;10.70;3.40;;;;;;;;;;5021215;28;20469;-66
2022/01/02 01:58:44;;;;;;;7.72;3.30;;;;;;;;;;5019572;28;20046;-66
2022/01/02 02:01:10;;;;;;;9.52;3.22;;;;;;;;;;5021430;28;20429;-66
2022/01/02 02:03:37;;;;;;;8.75;3.20;;;;;;;;;;5005122;28;20061;-67
2022/01/02 02:06:03;;;;;;;9.88;3.40;;;;;;;;;;5024105;28;20514;-67
2022/01/02 02:08:29;;;;;;;8.75;3.30;;;;;;;;;;5012102;28;20528;-67
2022/01/02 02:10:57;;;;;;;7.75;3.35;;;;;;;;;;5023693;28;20048;-67
2022/01/02 02:13:24;;;;;;;8.25;3.00;;;;;;;;;;5015587;28;20486;-67
2022/01/02 02:15:51;;;;;;;9.13;3.00;;;;;;;;;;5017322;28;20049;-66
2022/01/02 02:18:17;;;;;;;8.52;3.35;;;;;;;;;;5017425;28;20053;-67
2022/01/02 02:20:44;;;;;;;7.63;3.22;;;;;;;;;;5013128;28;20076;-66
2022/01/02 02:23:12;;;;;;;6.75;3.20;;;;;;;;;;5022971;28;20084;-66
2022/01/02 02:25:39;;;;;;;10.63;3.75;;;;;;;;;;5016567;28;20068;-66
2022/01/02 02:28:07;;;;;;;7.45;3.20;;;;;;;;;;5020295;28;20577;-66
2022/01/02 02:30:34;;;;;;;6.85;3.05;;;;;;;;;;5008387;28;20319;-66
2022/01/02 02:33:01;;;;;;;8.48;2.88;;;;;;;;;;5018401;28;20045;-66
2022/01/02 02:35:29;;;;;;;9.20;3.15;;;;;;;;;;5020990;28;20072;-66
2022/01/02 02:37:55;;;;;;;10.88;3.33;;;;;;;;;;5014755;28;20056;-66
2022/01/02 02:40:23;;;;;;;8.38;2.95;;;;;;;;;;5022750;28;20075;-66
2022/01/02 02:49:00;;;;;;;8.35;3.00;;;;;;;;;;5015181;28;20502;-66
2022/01/02 02:51:28;;;;;;;12.63;3.50;;;;;;;;;;5022598;28;20696;-66
2022/01/02 02:53:55;;;;;;;8.73;2.33;;;;;;;;;;5015164;28;20051;-66
2022/01/02 02:56:27;;;;;;;14.32;2.80;;;;;;;;;;5019792;28;20053;-67
2022/01/02 02:58:55;;;;;;;7.40;2.47;;;;;;;;;;5017535;28;20049;-66
2022/01/02 03:01:23;;;;;;;8.73;2.47;;;;;;;;;;5017231;28;20045;-66
2022/01/02 03:03:50;;;;;;;7.87;2.63;;;;;;;;;;5021648;28;20051;-66
2022/01/02 03:06:17;;;;;;;8.52;2.45;;;;;;;;;;5018244;28;20295;-66
2022/01/02 03:08:44;;;;;;;10.68;2.60;;;;;;;;;;5002340;28;20340;-66
2022/01/02 03:11:15;;;;;;;12.77;2.80;;;;;;;;;;5009171;28;20040;-66
2022/01/02 03:13:43;;;;;;;11.32;2.85;;;;;;;;;;5019221;28;20513;-66
2022/01/02 03:16:09;;;;;;;11.45;2.78;;;;;;;;;;5004216;28;20045;-66
2022/01/02 03:18:36;;;;;;;11.93;3.45;;;;;;;;;;5017478;28;20523;-66
2022/01/02 03:21:02;;;;;;;12.73;3.20;;;;;;;;;;5018847;28;20092;-66
2022/01/02 03:23:29;;;;;;;11.02;3.15;;;;;;;;;;5011341;28;20054;-66
2022/01/02 03:25:55;;;;;;;9.73;2.80;;;;;;;;;;5013035;28;20427;-66
2022/01/02 03:28:22;;;;;;;7.93;2.85;;;;;;;;;;5016812;28;20494;-67
2022/01/02 03:30:48;;;;;;;9.70;2.90;;;;;;;;;;5017791;28;20037;-67
2022/01/02 03:33:15;;;;;;;9.93;2.53;;;;;;;;;;5016865;28;20425;-66
2022/01/02 03:35:41;;;;;;;10.25;3.10;;;;;;;;;;5017329;28;20058;-66
2022/01/02 03:38:09;;;;;;;10.48;3.28;;;;;;;;;;5019808;28;20062;-66
2022/01/02 03:40:36;;;;;;;7.78;2.53;;;;;;;;;;5024432;28;20052;-67
2022/01/02 03:43:03;;;;;;;10.07;2.63;;;;;;;;;;5021572;28;20049;-66
2022/01/02 03:45:29;;;;;;;9.95;2.70;;;;;;;;;;5015126;28;20053;-66
2022/01/02 03:47:56;;;;;;;13.18;3.30;;;;;;;;;;5028842;28;20045;-66
2022/01/02 03:50:22;;;;;;;8.68;2.67;;;;;;;;;;5020445;28;20052;-67
2022/01/02 03:52:49;;;;;;;12.35;2.90;;;;;;;;;;5013756;28;20462;-67
2022/01/02 03:55:15;;;;;;;8.48;2.53;;;;;;;;;;5019164;28;20053;-66
2022/01/02 03:57:41;;;;;;;12.32;2.80;;;;;;;;;;5019519;28;20071;-66
2022/01/02 04:00:09;;;;;;;12.85;2.40;;;;;;;;;;5024486;28;20064;-66
2022/01/02 04:02:37;;;;;;;11.20;2.78;;;;;;;;;;5016633;28;20481;-66
2022/01/02 04:05:08;;;;;;;8.73;2.50;;;;;;;;;;5021609;28;20050;-66
2022/01/02 04:07:34;;;;;;;8.20;2.90;;;;;;;;;;5017393;28;20152;-66
2022/01/02 04:10:04;;;;;;;7.25;2.80;;;;;;;;;;5012105;28;20053;-66
2022/01/02 04:12:30;;;;;;;9.68;2.58;;;;;;;;;;5024977;28;20063;-66
2022/01/02 04:14:57;;;;;;;11.38;2.35;;;;;;;;;;5012983;28;20530;-66
2022/01/02 04:17:23;;;;;;;9.63;2.60;;;;;;;;;;5022400;28;20140;-66
2022/01/02 04:19:50;;;;;;;8.32;2.30;;;;;;;;;;5007118;28;20041;-66
2022/01/02 04:22:18;;;;;;;7.45;2.38;;;;;;;;;;5018958;28;20049;-67
2022/01/02 04:24:44;;;;;;;7.65;2.38;;;;;;;;;;5019261;28;20056;-66
2022/01/02 04:27:10;;;;;;;8.13;2.58;;;;;;;;;;5016284;28;20056;-66
2022/01/02 04:29:37;;;;;;;11.77;3.42;;;;;;;;;;5021596;28;20410;-66
2022/01/02 04:32:03;;;;;;;8.57;2.75;;;;;;;;;;5016778;28;20088;-66
2022/01/02 04:34:30;;;;;;;8.27;2.58;;;;;;;;;;5030745;28;20049;-66
2022/01/02 04:36:56;;;;;;;11.30;2.58;;;;;;;;;;5012504;28;20080;-66
2022/01/02 04:39:22;;;;;;;9.73;2.25;;;;;;;;;;5023378;28;20060;-66
2022/01/02 04:41:49;;;;;;;5.88;2.40;;;;;;;;;;5020008;28;20052;-67
2022/01/02 04:44:15;;;;;;;9.93;3.08;;;;;;;;;;5033992;28;20052;-66
2022/01/02 04:46:41;;;;;;;8.93;2.65;;;;;;;;;;5019178;28;20514;-66
2022/01/02 04:49:08;;;;;;;10.50;3.13;;;;;;;;;;5017275;28;20072;-66
2022/01/02 04:51:34;;;;;;;9.40;2.70;;;;;;;;;;5019567;28;20049;-66
2022/01/02 04:54:00;;;;;;;9.93;2.60;;;;;;;;;;5018546;28;20049;-67
2022/01/02 04:56:27;;;;;;;7.22;2.65;;;;;;;;;;5021656;28;20049;-67
2022/01/02 04:58:53;;;;;;;9.35;3.08;;;;;;;;;;5021508;28;20057;-67
2022/01/02 05:01:19;;;;;;;14.18;3.25;;;;;;;;;;5016459;28;20245;-67
2022/01/02 05:03:46;;;;;;;11.98;3.00;;;;;;;;;;5024107;28;20120;-67
2022/01/02 05:06:13;;;;;;;11.98;3.20;;;;;;;;;;5017266;28;20069;-67
2022/01/02 05:08:43;;;;;;;6.15;2.58;;;;;;;;;;5025714;28;20042;-67
2022/01/02 05:11:11;;;;;;;7.90;3.03;;;;;;;;;;5013697;28;20046;-67
2022/01/02 05:13:37;;;;;;;8.20;2.67;;;;;;;;;;5026141;28;20045;-67
2022/01/02 05:16:04;;;;;;;15.15;3.22;;;;;;;;;;5016714;28;20049;-67
2022/01/02 05:18:30;;;;;;;10.77;3.35;;;;;;;;;;5014694;28;20037;-67
2022/01/02 05:20:57;;;;;;;8.38;2.85;;;;;;;;;;5023221;28;20462;-66
2022/01/02 05:23:23;;;;;;;7.47;2.63;;;;;;;;;;5017281;28;20045;-67
2022/01/02 05:25:49;;;;;;;9.13;3.10;;;;;;;;;;5019945;28;20774;-66
2022/01/02 05:28:16;;;;;;;8.93;2.90;;;;;;;;;;5018929;28;20041;-66
2022/01/02 05:30:42;;;;;;;7.20;2.58;;;;;;;;;;5015268;28;20053;-67
2022/01/02 05:33:10;;;;;;;11.93;2.78;;;;;;;;;;5017592;28;20092;-67
2022/01/02 05:35:37;;;;;;;12.40;3.92;;;;;;;;;;5018733;28;20060;-66
2022/01/02 05:38:04;;;;;;;9.80;2.80;;;;;;;;;;5020849;28;20294;-67
2022/01/02 05:40:34;;;;;;;8.55;2.83;;;;;;;;;;5012480;28;20053;-67
2022/01/02 05:43:01;;;;;;;9.55;3.10;;;;;;;;;;5018451;28;20343;-67
2022/01/02 05:45:27;;;;;;;13.95;3.40;;;;;;;;;;5011255;28;20057;-67
2022/01/02 05:47:53;;;;;;;9.82;3.05;;;;;;;;;;5019794;28;20068;-67
2022/01/02 05:50:20;;;;;;;11.50;3.78;;;;;;;;;;5025248;28;20049;-67
2022/01/02 05:52:46;;;;;;;7.30;2.63;;;;;;;;;;5012345;28;20060;-67
2022/01/02 05:55:13;;;;;;;12.82;3.88;;;;;;;;;;5026818;28;20088;-67
2022/01/02 05:57:39;;;;;;;10.98;2.72;;;;;;;;;;5006461;28;20053;-67
2022/01/02 06:00:07;;;;;;;9.32;3.10;;;;;;;;;;5020312;28;20042;-68
2022/01/02 06:02:33;;;;;;;7.50;2.70;;;;;;;;;;5013295;28;20049;-67
2022/01/02 06:05:02;;;;;;;9.20;2.78;;;;;;;;;;5025458;28;20052;-67
2022/01/02 06:07:32;;;;;;;8.00;3.03;;;;;;;;;;5020996;28;20048;-68
2022/01/02 06:09:58;;;;;;;10.70;3.90;;;;;;;;;;5021959;28;20473;-67
2022/01/02 06:12:24;;;;;;;9.27;3.03;;;;;;;;;;5020134;28;20057;-68
2022/01/02 06:14:51;;;;;;;7.13;3.22;;;;;;;;;;5018016;28;20411;-67
2022/01/02 06:17:17;;;;;;;8.35;3.00;;;;;;;;;;5020821;28;20049;-66
2022/01/02 06:19:43;;;;;;;6.57;2.97;;;;;;;;;;5016872;28;20487;-66
2022/01/02 06:22:09;;;;;;;11.18;3.05;;;;;;;;;;5017145;28;20517;-67
2022/01/02 06:24:36;;;;;;;7.05;2.85;;;;;;;;;;5016221;28;20421;-67
2022/01/02 06:27:02;;;;;;;9.65;2.97;;;;;;;;;;5000789;28;20065;-67
2022/01/02 06:29:28;;;;;;;6.95;2.97;;;;;;;;;;5024390;28;20052;-67
2022/01/02 06:31:57;;;;;;;9.30;3.05;;;;;;;;;;5008851;28;20149;-67
2022/01/02 06:34:24;;;;;;;;;;;;;;;;;;5022605;28;20046;-66
2022/01/02 06:36:50;;;;;;;8.23;2.78;;;;;;;;;;5006636;28;19924;-66
2022/01/02 06:39:16;;;;;;;8.98;2.40;;;;;;;;;;5017667;28;20044;-66
2022/01/02 06:41:42;;;;;;;7.47;2.90;;;;;;;;;;5019677;28;20045;-66
2022/01/02 06:44:09;;;;;;;8.23;2.90;;;;;;;;;;4999316;28;20049;-66
2022/01/02 06:46:35;;;;;;;7.38;2.80;;;;;;;;;;5001792;28;20064;-66
2022/01/02 06:49:01;;;;;;;5.70;2.22;;;;;;;;;;5012028;28;20135;-66
2022/01/02 06:51:46;;;;;;;9.25;2.67;;;;;;;;;;5013334;28;20074;-66
2022/01/02 06:54:12;;;;;;;8.25;2.90;;;;;;;;;;4998676;28;20317;-66
2022/01/02 06:56:38;;;;;;;8.13;2.63;;;;;;;;;;5019700;28;20053;-65
2022/01/02 06:59:05;;;;;;;10.95;2.50;;;;;;;;;;5017965;28;20374;-65
2022/01/02 07:01:31;;;;;;;7.20;2.42;;;;;;;;;;5021301;28;20538;-65
2022/01/02 07:03:58;;;;;;;8.43;2.70;;;;;;;;;;5017974;28;20061;-66
2022/01/02 07:06:24;;;;;;;7.20;2.60;;;;;;;;;;5005768;28;20072;-66
2022/01/02 07:08:51;;;;;;;10.05;2.65;;;;;;;;;;5015703;28;20422;-67
2022/01/02 07:11:18;;;;;;;6.72;2.45;;;;;;;;;;5011913;28;20068;-66
2022/01/02 07:13:44;;;;;;;7.68;2.88;;;;;;;;;;5016337;28;20053;-66
2022/01/02 07:16:10;;;;;;;4.22;2.25;;;;;;;;;;5034825;28;20512;-66
2022/01/02 07:18:36;;;;;;;8.20;2.30;;;;;;;;;;5006113;28;20050;-67
2022/01/02 07:21:03;;;;;;;8.60;2.67;;;;;;;;;;5022982;28;20395;-67
2022/01/02 07:23:29;;;;;;;9.65;2.97;;;;;;;;;;5010564;28;20041;-67
2022/01/02 07:25:55;;;;;;;4.85;2.33;;;;;;;;;;5022645;28;20056;-66
2022/01/02 07:28:22;;;;;;;9.30;2.53;;;;;;;;;;5014151;28;20051;-65
2022/01/02 07:30:48;;;;;;;8.75;2.85;;;;;;;;;;5018941;28;20056;-66
2022/01/02 07:33:14;;;;;;;7.43;2.50;;;;;;;;;;5015290;28;20124;-66
2022/01/02 07:35:41;;;;;;;7.78;2.58;;;;;;;;;;5014975;28;20427;-66
2022/01/02 07:38:27;;;;;;;6.53;2.38;;;;;;;;;;5018594;28;20356;-66
2022/01/02 07:40:53;;;;;;;7.47;2.75;;;;;;;;;;5012797;28;20057;-66
2022/01/02 07:43:20;;;;;;;10.50;3.03;;;;;;;;;;5020435;28;20061;-66
2022/01/02 07:45:46;;;;;;;6.40;2.72;;;;;;;;;;5011099;28;20072;-66
2022/01/02 07:48:12;;;;;;;6.90;2.50;;;;;;;;;;4999709;28;20049;-66
2022/01/02 07:50:39;;;;;;;7.47;2.63;;;;;;;;;;5013078;28;20053;-66
2022/01/02 07:53:05;;;;;;;12.00;2.88;;;;;;;;;;5019648;28;24157;-66
2022/01/02 07:55:31;;;;;;;6.18;2.40;;;;;;;;;;5035613;28;20075;-66
2022/01/02 07:57:58;;;;;;;8.75;3.17;;;;;;;;;;5017693;28;20053;-66
2022/01/02 08:00:24;;;;;;;7.85;3.00;;;;;;;;;;5015076;28;20262;-66
2022/01/02 08:02:50;;;;;;;8.05;2.80;;;;;;;;;;5027124;28;20201;-66
2022/01/02 08:05:17;;;;;;;7.05;2.67;;;;;;;;;;5025350;28;20597;-66
2022/01/02 08:07:43;;;;;;;3.97;2.30;;;;;;;;;;5016332;28;20069;-66
2022/01/02 08:10:10;;;;;;;5.63;2.35;;;;;;;;;;5024628;28;20128;-66
2022/01/02 08:12:36;;;;;;;7.80;3.13;;;;;;;;;;5022320;28;20410;-65
2022/01/02 08:15:03;;;;;;;7.65;3.63;;;;;;;;;;5008642;28;20086;-65
2022/01/02 08:17:29;;;;;;;7.28;2.42;;;;;;;;;;5027742;28;20049;-65
2022/01/02 08:19:56;;;;;;;5.20;2.78;;;;;;;;;;5013603;28;20305;-66
2022/01/02 08:22:22;;;;;;;10.05;3.05;;;;;;;;;;5025158;28;20479;-65
2022/01/02 08:24:49;;;;;;;9.35;2.90;;;;;;;;;;5014380;28;20490;-65
2022/01/02 08:27:15;;;;;;;7.20;2.65;;;;;;;;;;5016285;28;20387;-65
2022/01/02 08:29:42;;;;;;;7.55;2.80;;;;;;;;;;5017494;28;20053;-66
2022/01/02 08:32:09;;;;;;;9.65;2.60;;;;;;;;;;5020162;28;20049;-66
2022/01/02 08:34:35;;;;;;;7.90;3.35;;;;;;;;;;5021891;28;20060;-65
2022/01/02 08:37:01;;;;;;;7.53;3.00;;;;;;;;;;5018525;28;20054;-66
2022/01/02 08:39:28;;;;;;;7.07;2.90;;;;;;;;;;5017008;28;20525;-65
2022/01/02 08:41:55;;;;;;;5.82;2.83;;;;;;;;;;5019613;28;20413;-66
2022/01/02 08:44:22;;;;;;;6.55;2.40;;;;;;;;;;5017497;28;20042;-66
2022/01/02 08:46:50;;;;;;;7.20;3.00;;;;;;;;;;5029919;28;20056;-66
2022/01/02 08:49:17;;;;;;;6.43;2.70;;;;;;;;;;5027123;28;20347;-66
2022/01/02 08:51:43;;;;;;;9.05;2.53;;;;;;;;;;5026755;28;20049;-66
2022/01/02 08:54:10;;;;;;;8.63;2.97;;;;;;;;;;5009703;28;20271;-65
2022/01/02 08:56:37;;;;;;;5.70;2.20;;;;;;;;;;5020607;28;20049;-65
2022/01/02 08:59:03;;;;;;;6.13;2.50;;;;;;;;;;5017578;28;20061;-66
2022/01/02 09:01:29;;;;;;;6.97;2.53;;;;;;;;;;5025468;28;20092;-66
2022/01/02 09:03:55;;;;;;;5.60;2.40;;;;;;;;;;5011678;28;20059;-66
2022/01/02 09:06:22;;;;;;;6.95;2.60;;;;;;;;;;5020170;28;20049;-66
2022/01/02 09:08:48;;;;;;;8.95;2.50;;;;;;;;;;5017064;28;20049;-66
2022/01/02 09:11:14;;;;;;;4.93;2.10;;;;;;;;;;5014793;28;20498;-66
2022/01/02 09:13:41;;;;;;;7.55;2.50;;;;;;;;;;5023182;28;20057;-66
2022/01/02 09:16:07;;;;;;;8.95;2.70;;;;;;;;;;5022605;28;20338;-66
2022/01/02 09:18:34;;;;;;;4.43;2.35;;;;;;;;;;5019235;28;20161;-65
2022/01/02 09:21:00;;;;;;;7.82;2.83;;;;;;;;;;5025117;28;20049;-65
2022/01/02 09:23:27;;;;;;;6.70;2.60;;;;;;;;;;5011424;28;20049;-65
2022/01/02 09:25:53;;;;;;;6.97;3.08;;;;;;;;;;5020960;28;20056;-65
2022/01/02 09:28:19;;;;;;;6.93;2.92;;;;;;;;;;5016796;28;20049;-65
2022/01/02 09:30:45;;;;;;;6.32;2.72;;;;;;;;;;5027607;28;20111;-65
2022/01/02 09:33:12;;;;;;;6.70;3.03;;;;;;;;;;5030797;28;20110;-65
2022/01/02 09:35:41;;;;;;;8.77;2.72;;;;;;;;;;5019459;28;20402;-64
2022/01/02 09:38:07;;;;;;;;;;;;;;;;;;5038480;28;20057;-64
2022/01/02 09:40:34;;;;;;;6.07;2.80;;;;;;;;;;5016439;28;19929;-65
2022/01/02 09:43:02;;;;;;;8.18;2.88;;;;;;;;;;5027310;28;20479;-65
2022/01/02 09:45:28;;;;;;;7.60;2.97;;;;;;;;;;5018927;28;20761;-65
2022/01/02 09:47:55;;;;;;;6.18;3.22;;;;;;;;;;5017200;28;20215;-65
2022/01/02 09:50:21;;;;;;;6.57;2.83;;;;;;;;;;5014343;28;20060;-65
2022/01/02 09:52:49;;;;;;;5.57;2.83;;;;;;;;;;5021081;28;20533;-65
2022/01/02 09:55:15;;;;;;;5.40;2.83;;;;;;;;;;5020647;28;20054;-65
2022/01/02 09:57:45;;;;;;;4.78;2.53;;;;;;;;;;5001801;28;20049;-65
2022/01/02 10:00:12;;;;;;;6.75;2.58;;;;;;;;;;5016757;28;20049;-64
2022/01/02 10:02:53;;;;;;;5.53;3.05;;;;;;;;;;5013919;28;20049;-64
2022/01/02 10:05:24;;;;;;;5.88;2.85;;;;;;;;;;5021977;28;20056;-64
2022/01/02 10:07:51;;;;;;;7.07;3.80;;;;;;;;;;5015100;28;20046;-64
2022/01/02 10:10:17;;;;;;;8.00;3.80;;;;;;;;;;5030994;28;20407;-64
2022/01/02 10:12:44;;;;;;;6.78;3.33;;;;;;;;;;5024594;28;20057;-65
2022/01/02 10:15:11;;;;;;;7.55;3.50;;;;;;;;;;5007497;28;20046;-65
2022/01/02 10:17:56;;;;;;;6.03;3.45;;;;;;;;;;5019392;28;20064;-65
2022/01/02 10:20:42;;;;;;;8.60;3.63;;;;;;;;;;5020758;28;20458;-65
2022/01/02 10:23:09;;;;;;;10.00;3.88;;;;;;;;;;5027021;28;20545;-65
2022/01/02 10:25:37;;;;;;;9.30;3.60;;;;;;;;;;5014490;28;20060;-65
2022/01/02 10:28:19;;;;;;;7.07;3.42;;;;;;;;;;5022976;28;20495;-65
2022/01/02 10:30:46;;;;;;;10.75;3.70;;;;;;;;;;5011596;28;20050;-65
2022/01/02 10:33:12;;;;;;;9.18;3.83;;;;;;;;;;5022467;28;20148;-65
2022/01/02 10:35:40;;;;;;;6.93;3.83;;;;;;;;;;5019026;28;20045;-65
2022/01/02 10:38:13;;;;;;;8.70;3.50;;;;;;;;;;5014470;28;20041;-65
2022/01/02 10:40:40;;;;;;;6.53;3.70;;;;;;;;;;5020620;28;20068;-65
2022/01/02 10:43:07;;;;;;;9.50;4.00;;;;;;;;;;5016254;28;20064;-65
2022/01/02 10:45:35;;;;;;;10.73;5.13;;;;;;;;;;5019355;28;20060;-65
2022/01/02 10:48:02;;;;;;;7.40;3.83;;;;;;;;;;5016808;28;20285;-64
2022/01/02 10:50:34;;;;;;;8.65;3.85;;;;;;;;;;5011165;28;20085;-64
2022/01/02 10:53:11;;;;;;;10.40;3.92;;;;;;;;;;5018296;28;20068;-64
2022/01/02 10:55:38;;;;;;;8.23;4.03;;;;;;;;;;5005256;28;20049;-64
2022/01/02 10:58:07;;;;;;;9.27;3.33;;;;;;;;;;5003249;28;20051;-64
2022/01/02 11:00:33;;;;;;;10.43;3.75;;;;;;;;;;4993629;28;20053;-64
2022/01/02 11:03:00;;;;;;;9.40;4.00;;;;;;;;;;4999883;28;20149;-64
2022/01/02 11:05:28;;;;;;;8.13;3.75;;;;;;;;;;5021095;28;20514;-64
2022/01/02 11:07:58;;;;;;;9.75;3.15;;;;;;;;;;5017342;28;20069;-65
2022/01/02 11:10:27;;;;;;;10.18;4.45;;;;;;;;;;4996349;28;20429;-65
2022/01/02 11:12:54;;;;;;;7.95;3.67;;;;;;;;;;5019883;28;20557;-66
2022/01/02 11:15:27;;;;;;;8.43;3.90;;;;;;;;;;5037008;28;20052;-65
2022/01/02 11:17:54;;;;;;;9.10;3.53;;;;;;;;;;5011742;28;20491;-65
2022/01/02 11:20:21;;;;;;;7.28;3.55;;;;;;;;;;5020098;28;20053;-65
2022/01/02 11:23:05;;;;;;;11.38;4.25;;;;;;;;;;5004462;28;20050;-65
2022/01/02 11:25:50;;;;;;;12.52;4.20;;;;;;;;;;5020962;28;20061;-65
2022/01/02 11:28:29;;;;;;;9.98;3.83;;;;;;;;;;5011461;28;20049;-65
2022/01/02 11:30:55;;;;;;;10.73;3.85;;;;;;;;;;5022200;28;20041;-65
2022/01/02 11:33:29;;;;;;;12.32;4.30;;;;;;;;;;5017538;28;20418;-65
2022/01/02 11:35:56;;;;;;;10.63;3.80;;;;;;;;;;5013922;28;20049;-65
2022/01/02 11:38:25;;;;;;;8.73;3.45;;;;;;;;;;5018397;28;20057;-65
2022/01/02 11:40:56;;;;;;;11.80;3.50;;;;;;;;;;5008424;28;20548;-65
2022/01/02 11:43:38;;;;;;;9.18;3.50;;;;;;;;;;5025681;28;20135;-65
2022/01/02 11:46:23;;;;;;;9.07;3.70;;;;;;;;;;4999299;28;20502;-65
2022/01/02 11:49:05;;;;;;;6.80;3.47;;;;;;;;;;5018325;28;20049;-65
2022/01/02 11:51:46;;;;;;;12.73;3.40;;;;;;;;;;5007195;28;20041;-65
2022/01/02 11:54:28;;;;;;;9.45;3.22;;;;;;;;;;5022638;28;20045;-65
2022/01/02 11:56:57;;;;;;;10.18;3.47;;;;;;;;;;5011229;28;20047;-65
2022/01/02 11:59:39;;;;;;;7.00;3.10;;;;;;;;;;5023225;28;20045;-65
2022/01/02 12:02:17;;;;;;;7.00;3.05;;;;;;;;;;5010037;28;20046;-65
2022/01/02 12:05:12;;;;;;;10.13;3.05;;;;;;;;;;5023001;28;20052;-65
2022/01/02 12:07:45;;;;;;;6.75;2.85;;;;;;;;;;5008450;28;20561;-65
2022/01/02 12:10:21;;;;;;;9.70;3.10;;;;;;;;;;5022087;28;20054;-66
2022/01/02 12:12:59;;;;;;;12.40;3.40;;;;;;;;;;5015321;28;20775;-64
2022/01/02 12:15:25;;;;;;;;;;;;;;;;;;5015077;28;20053;-64
2022/01/02 12:18:08;;;;;;;6.55;2.92;;;;;;;;;;5013528;28;19968;-64
2022/01/02 12:20:49;;;;;;;13.13;3.40;;;;;;;;;;5009706;28;20057;-65
2022/01/02 12:23:31;;;;;;;12.90;3.20;;;;;;;;;;5017995;28;20387;-65
2022/01/02 12:25:58;;;;;;;7.43;3.47;;;;;;;;;;5015165;28;20046;-64
2022/01/02 12:28:25;;;;;;;7.75;3.10;;;;;;;;;;5004618;28;20060;-65
2022/01/02 12:30:52;;;;;;;10.00;3.20;;;;;;;;;;5007590;28;20061;-65
2022/01/02 12:33:25;;;;;;;13.18;4.00;;;;;;;;;;5019084;28;20049;-65
2022/01/02 12:35:52;;;;;;;7.78;3.80;;;;;;;;;;5036893;28;20364;-66
2022/01/02 12:38:18;;;;;;;9.10;3.70;;;;;;;;;;5015129;28;20056;-66
2022/01/02 12:40:45;;;;;;;9.32;2.80;;;;;;;;;;5016687;28;21021;-66
2022/01/02 12:43:11;;;;;;;10.88;4.10;;;;;;;;;;5008226;28;20042;-65
2022/01/02 12:45:38;;;;;;;12.65;3.95;;;;;;;;;;5015405;28;20053;-65
2022/01/02 12:48:04;;;;;;;7.43;3.25;;;;;;;;;;5017022;28;20055;-66
2022/01/02 12:50:31;;;;;;;11.75;3.60;;;;;;;;;;5020774;28;20057;-66
2022/01/02 12:52:58;;;;;;;8.77;3.38;;;;;;;;;;5022787;28;20334;-66
2022/01/02 12:55:25;;;;;;;11.35;3.92;;;;;;;;;;5022067;28;20061;-66
2022/01/02 12:58:05;;;;;;;11.23;3.40;;;;;;;;;;5017877;28;20041;-66
2022/01/02 13:00:31;;;;;;;7.43;2.97;;;;;;;;;;5012470;28;20061;-66
2022/01/02 13:02:58;;;;;;;12.27;3.72;;;;;;;;;;5021273;28;20049;-66
2022/01/02 13:05:24;;;;;;;11.10;3.90;;;;;;;;;;5026213;28;20263;-66
2022/01/02 13:07:59;;;;;;;10.88;3.70;;;;;;;;;;5031944;28;20072;-66
2022/01/02 13:10:25;;;;;;;7.55;3.25;;;;;;;;;;5016619;28;20097;-67
2022/01/02 13:12:51;;;;;;;12.60;3.70;;;;;;;;;;5016970;28;20427;-68
2022/01/02 13:15:18;;;;;;;10.25;3.20;;;;;;;;;;5023163;28;20045;-65
2022/01/02 13:17:49;;;;;;;10.38;3.40;;;;;;;;;;5014410;28;20046;-66
2022/01/02 13:20:16;;;;;;;12.25;3.20;;;;;;;;;;5025095;28;20053;-66
2022/01/02 13:22:45;;;;;;;7.20;2.78;;;;;;;;;;5013484;28;20073;-66
2022/01/02 13:25:30;;;;;;;9.13;3.95;;;;;;;;;;5019537;28;20410;-66
2022/01/02 13:28:01;;;;;;;12.70;3.03;;;;;;;;;;5008831;28;20391;-66
2022/01/02 13:30:29;;;;;;;9.23;3.10;;;;;;;;;;5027291;28;20053;-66
2022/01/02 13:32:56;;;;;;;10.05;3.17;;;;;;;;;;5022331;28;20065;-66
2022/01/02 13:35:24;;;;;;;11.35;2.80;;;;;;;;;;5019125;28;20061;-66
2022/01/02 13:38:00;;;;;;;8.52;3.72;;;;;;;;;;5022546;28;20077;-66
2022/01/02 13:40:28;;;;;;;12.10;2.95;;;;;;;;;;5010390;28;20685;-66
2022/01/02 13:42:55;;;;;;;12.88;3.03;;;;;;;;;;5035273;28;20054;-66
2022/01/02 13:45:28;;;;;;;6.80;2.33;;;;;;;;;;5018325;28;20737;-66
2022/01/02 13:48:17;;;;;;;11.27;3.33;;;;;;;;;;5025930;28;20053;-66
2022/01/02 13:50:45;;;;;;;10.02;2.45;;;;;;;;;;5018425;28;20053;-66
2022/01/02 13:53:16;;;;;;;10.15;2.30;;;;;;;;;;5017593;28;20045;-67
2022/01/02 13:55:45;;;;;;;8.90;3.20;;;;;;;;;;5022253;28;20137;-67
2022/01/02 13:58:30;;;;;;;9.38;2.65;;;;;;;;;;5016567;28;20045;-66
2022/01/02 14:01:02;;;;;;;11.05;2.13;;;;;;;;;;5026124;28;20045;-65
2022/01/02 14:03:33;;;;;;;13.88;2.40;;;;;;;;;;5015029;28;20049;-66
2022/01/02 14:06:05;;;;;;;13.05;2.08;;;;;;;;;;5026601;28;20208;-66
2022/01/02 14:08:38;;;;;;;13.38;2.58;;;;;;;;;;5009762;28;20064;-66
2022/01/02 14:11:05;;;;;;;9.98;2.70;;;;;;;;;;5025748;28;21427;-66
2022/01/02 14:14:04;;;;;;;12.35;2.63;;;;;;;;;;5017543;28;20068;-66
2022/01/02 14:19:03;;;;;;;12.68;2.05;;;;;;;;;;5014372;28;20053;-66
2022/01/02 14:21:30;;;;;;;9.05;2.03;;;;;;;;;;5007169;28;20060;-67
2022/01/02 14:23:57;;;;;;;17.10;2.60;;;;;;;;;;5008971;28;20057;-66
2022/01/02 14:26:24;;;;;;;10.80;2.88;;;;;;;;;;5017946;28;20124;-66
2022/01/02 14:28:57;;;;;;;15.13;3.38;;;;;;;;;;5022319;28;20049;-66
2022/01/02 14:31:26;;;;;;;12.27;3.20;;;;;;;;;;5018813;28;20073;-66
2022/01/02 14:33:53;;;;;;;11.90;2.53;;;;;;;;;;5019027;28;20083;-66
2022/01/02 14:36:19;;;;;;;7.70;1.73;;;;;;;;;;5010492;28;20166;-67
2022/01/02 14:38:48;;;;;;;10.27;2.13;;;;;;;;;;5018937;28;20064;-66
2022/01/02 14:41:17;;;;;;;11.93;2.03;;;;;;;;;;5025460;28;20051;-66
2022/01/02 14:43:43;;;;;;;;;;;;;;;;;;5005082;28;20061;-66
2022/01/02 14:46:09;;;;;;;14.02;2.22;;;;;;;;;;5017631;28;20008;-66
2022/01/02 14:48:36;;;;;;;11.75;2.10;;;;;;;;;;5007793;28;20072;-67
2022/01/02 14:51:02;;;;;;;13.43;2.47;;;;;;;;;;5017530;28;20446;-67
2022/01/02 14:53:28;;;;;;;16.92;2.75;;;;;;;;;;5017243;28;20056;-67
2022/01/02 14:55:55;;;;;;;10.73;1.77;;;;;;;;;;5022764;28;20049;-67
2022/01/02 14:58:21;;;;;;;11.95;1.90;;;;;;;;;;5023717;28;20053;-66